Grand Coulee, WA

6:39 PM PDT on August 01, 2015 (GMT -0700)
3 miles ESE of Grand Coulee Dam, in Lincoln County, WA | | Change Station
CLOSE
Current Station
Personal Weather Station
Location: Grand Coulee, WA
Elevation: 1575 ft
Nearby Weather Stations

Elev 1575 ft 47.92 °N, 118.94 °W | Updated 9 minutes ago

Partly Cloudy
Partly Cloudy
88.8 °F
Feels Like 85 °F
N
0.0
Wind Variable Wind from NNE
Gusts 1.0 mph

Today
High -- | Low -- °F
--% Chance of Precip.
Yesterday
High -- | Low -- °F
Precip. -- in
5:32 AM 8:31 PM
Waning Gibbous, 96% visible
Pressure 29.77 in
Visibility 4.0 miles
Clouds Overcast 4000 ft
Heat Index 85 °F
Dew Point 30 °F
Humidity 12%
Rainfall 0.00 in
Snow Depth Not available.
UV 1 out of 12
Pollen 6.70 out of 12
Air Quality Not available.
Flu Activity Not available.
METAR KOMK 020053Z AUTO 16005KT 4SM HZ OVC040 37/M02 A2980 RMK AO2 SLP080 T03671017 $

More Conditions Fewer Conditions

Pressure 29.77 in
Visibility 4.0 miles
Clouds Overcast 4000 ft
Heat Index 85 °F
Dew Point 30 °F
Humidity 12%
Rainfall 0.00 in
Snow Depth Not available.
UV 1 out of 12
Pollen 6.70 out of 12
Air Quality Not available.
Flu Activity Not available.
METAR KOMK 020053Z AUTO 16005KT 4SM HZ OVC040 37/M02 A2980 RMK AO2 SLP080 T03671017 $

More Conditions Fewer Conditions

10-Day Weather Forecast

×

Almanac

Astronomy

Aug. 01, 2015 Rise Set
Actual Time
Civil Twilight
Nautical Twilight
Astronomical Twilight
Moon
Length of Visible Light
Length of Day
Tomorrow will be .
, % of the Moon is Illuminated

Today's Extremes

State Highs State Lows

Community

WunderPhotos

Upload Photos

1,843,127 photos uploaded!

WunderBlogs® & News

Nearby

Air Quality

  Air Quality AQ Index Pollutant
Not available.

Snow Depth

Station Depth Elevation

Earthquake Activity

City Distance Mag. Time & Date
Minimum magnitude displayed is 2.5.

Coastal Water Temperatures

Place Temperature

Stations

Nearby Weather Stations

Station Location Temp. Windchill Dew Point Humidity Wind Precip. Elev Updated Type